createdAt,value
2023-03-19T00:01:11.052Z,70.10
2023-03-19T00:03:39.346Z,70.47
2023-03-19T00:06:08.144Z,69.32
2023-03-19T00:08:37.875Z,70.00
2023-03-19T00:11:09.566Z,70.33
2023-03-19T00:13:37.779Z,70.32
2023-03-19T00:16:06.834Z,70.89
2023-03-19T00:18:35.547Z,69.98
2023-03-19T00:21:03.692Z,69.58
2023-03-19T00:23:32.001Z,69.66
2023-03-19T00:26:02.056Z,69.79
2023-03-19T00:28:30.373Z,70.46
2023-03-19T00:30:58.783Z,71.13
2023-03-19T00:33:27.623Z,70.94
2023-03-19T00:35:55.796Z,70.84
2023-03-19T00:38:24.244Z,70.55
2023-03-19T00:40:52.525Z,71.75
2023-03-19T00:43:22.116Z,71.80
2023-03-19T00:45:50.523Z,71.57
2023-03-19T00:48:18.803Z,71.79
2023-03-19T00:50:47.080Z,71.12
2023-03-19T00:53:15.240Z,71.55
2023-03-19T00:55:43.681Z,72.21
2023-03-19T01:00:59.949Z,71.54
2023-03-19T01:03:28.291Z,72.44
2023-03-19T01:05:56.599Z,71.73
2023-03-19T01:08:24.733Z,72.23
2023-03-19T01:10:52.911Z,71.56
2023-03-19T01:13:21.714Z,70.99
2023-03-19T01:15:54.139Z,71.91
2023-03-19T01:18:23.682Z,72.28
2023-03-19T01:20:51.830Z,72.23
2023-03-19T01:23:19.916Z,72.55
2023-03-19T01:25:48.374Z,72.72
2023-03-19T01:28:16.639Z,72.84
2023-03-19T01:30:44.797Z,73.73
2023-03-19T01:33:12.982Z,73.89
2023-03-19T01:35:43.483Z,73.61
2023-03-19T01:38:11.720Z,73.36
2023-03-19T01:40:46.017Z,73.75
2023-03-19T01:43:17.475Z,73.80
2023-03-19T01:45:48.574Z,73.29
2023-03-19T01:48:28.382Z,72.72
2023-03-19T01:50:58.768Z,72.72
2023-03-19T01:53:30.312Z,73.57
2023-03-19T01:56:04.347Z,74.42
2023-03-19T01:58:32.537Z,74.18
2023-03-19T02:01:00.781Z,74.15
2023-03-19T02:03:28.908Z,72.98
2023-03-19T02:06:00.385Z,73.72
2023-03-19T02:08:30.188Z,74.08
2023-03-19T02:11:00.452Z,74.35
2023-03-19T02:13:29.069Z,74.25
2023-03-19T02:15:57.376Z,74.51
2023-03-19T02:18:26.581Z,74.12
2023-03-19T02:21:01.969Z,74.70
2023-03-19T02:23:37.713Z,74.87
2023-03-19T02:26:10.245Z,75.08
2023-03-19T02:28:41.096Z,75.19
2023-03-19T02:31:10.200Z,75.21
2023-03-19T02:33:38.558Z,75.14
2023-03-19T02:36:10.716Z,74.54
2023-03-19T02:38:41.592Z,74.59
2023-03-19T02:41:12.110Z,75.70
2023-03-19T02:43:42.115Z,75.79
2023-03-19T02:46:14.096Z,76.32
2023-03-19T02:48:42.585Z,76.61
2023-03-19T02:51:10.794Z,76.63
2023-03-19T02:53:39.018Z,76.34
2023-03-19T02:56:07.734Z,75.95
2023-03-19T02:58:37.634Z,75.47
2023-03-19T03:01:06.431Z,76.06
2023-03-19T03:03:34.638Z,77.02
2023-03-19T03:06:02.807Z,76.56
2023-03-19T03:08:31.214Z,76.73
2023-03-19T03:10:59.336Z,77.36
2023-03-19T03:13:27.994Z,76.32
2023-03-19T03:15:57.624Z,77.24
2023-03-19T03:18:26.026Z,77.37
2023-03-19T03:20:54.783Z,77.23
2023-03-19T03:23:23.006Z,77.86
2023-03-19T03:25:52.217Z,77.92
2023-03-19T03:28:20.622Z,77.76
2023-03-19T03:30:49.226Z,78.55
2023-03-19T03:33:18.782Z,77.93
2023-03-19T03:35:47.135Z,77.39
2023-03-19T03:38:15.767Z,78.14
2023-03-19T03:40:44.010Z,77.98
2023-03-19T03:43:12.191Z,77.88
2023-03-19T03:45:40.372Z,78.00
2023-03-19T03:48:08.621Z,77.81
2023-03-19T03:50:38.227Z,78.22
2023-03-19T03:53:06.592Z,78.25
2023-03-19T03:55:35.231Z,78.10
2023-03-19T03:58:03.378Z,77.92
2023-03-19T04:00:31.762Z,78.40
2023-03-19T04:03:01.316Z,78.63
2023-03-19T04:05:29.630Z,77.90
2023-03-19T04:07:59.384Z,78.15
2023-03-19T04:10:27.884Z,77.92
2023-03-19T04:12:56.190Z,78.05
2023-03-19T04:15:24.690Z,78.27
2023-03-19T04:17:52.849Z,78.85
2023-03-19T04:20:22.882Z,78.97
2023-03-19T04:22:51.663Z,79.10
2023-03-19T04:25:21.476Z,79.84
2023-03-19T04:27:49.693Z,80.12
2023-03-19T04:30:18.024Z,79.43
2023-03-19T04:32:46.477Z,79.88
2023-03-19T04:35:14.814Z,80.31
2023-03-19T04:37:48.574Z,80.56
2023-03-19T04:40:18.512Z,80.03
2023-03-19T04:42:48.178Z,80.60
2023-03-19T04:45:16.448Z,80.54
2023-03-19T04:47:44.664Z,79.20
2023-03-19T04:50:12.996Z,79.53
2023-03-19T04:52:41.772Z,80.22
2023-03-19T04:55:10.527Z,80.38
2023-03-19T04:57:38.697Z,80.62
2023-03-19T05:00:10.076Z,80.24
2023-03-19T05:02:38.533Z,80.57
2023-03-19T05:05:07.325Z,81.20
2023-03-19T05:07:35.543Z,81.04
2023-03-19T05:10:03.979Z,80.90
2023-03-19T05:12:32.143Z,80.66
2023-03-19T05:15:00.387Z,81.21
2023-03-19T05:17:30.163Z,80.38
2023-03-19T05:19:58.529Z,81.11
2023-03-19T05:22:26.680Z,80.98
2023-03-19T05:24:54.795Z,80.81
2023-03-19T05:27:23.031Z,80.30
2023-03-19T05:29:51.180Z,80.51
2023-03-19T05:32:19.397Z,80.33
2023-03-19T05:34:49.510Z,79.76
2023-03-19T05:37:18.464Z,79.44
2023-03-19T05:39:46.743Z,79.46
2023-03-19T05:42:15.712Z,79.20
2023-03-19T05:44:44.036Z,79.19
2023-03-19T05:47:12.770Z,78.32
2023-03-19T05:49:41.013Z,76.17
2023-03-19T05:52:11.305Z,76.07
2023-03-19T05:54:39.468Z,75.72
2023-03-19T05:57:07.784Z,75.62
2023-03-19T05:59:36.169Z,75.88
2023-03-19T06:02:04.364Z,75.92
2023-03-19T06:04:32.536Z,76.26
2023-03-19T06:07:00.836Z,76.17
2023-03-19T06:09:30.529Z,74.65
2023-03-19T06:11:58.662Z,74.93
2023-03-19T06:14:27.170Z,74.12
2023-03-19T06:16:55.347Z,74.13
2023-03-19T06:19:23.743Z,72.64
2023-03-19T06:21:52.493Z,72.83
2023-03-19T06:24:20.744Z,72.97
2023-03-19T06:26:50.350Z,72.59
2023-03-19T06:29:18.605Z,71.92
2023-03-19T06:31:46.889Z,72.39
2023-03-19T06:34:15.153Z,72.40
2023-03-19T06:36:43.462Z,70.90
2023-03-19T06:39:11.749Z,70.17
2023-03-19T06:41:40.040Z,70.07
2023-03-19T06:44:09.643Z,69.21
2023-03-19T06:46:37.787Z,68.66
2023-03-19T06:49:05.948Z,68.29
2023-03-19T06:51:34.185Z,67.38
2023-03-19T06:54:02.349Z,67.41
2023-03-19T06:56:30.626Z,67.47
2023-03-19T06:58:58.883Z,67.53
2023-03-19T07:01:29.009Z,67.83
2023-03-19T07:03:57.439Z,67.36
2023-03-19T07:06:25.818Z,65.68
2023-03-19T07:08:53.966Z,65.64
2023-03-19T07:11:22.189Z,65.42
2023-03-19T07:13:50.418Z,64.95
2023-03-19T07:16:18.611Z,64.12
2023-03-19T07:18:48.183Z,63.59
2023-03-19T07:21:16.317Z,63.38
2023-03-19T07:23:46.983Z,61.84
2023-03-19T07:26:15.102Z,60.84
2023-03-19T07:28:43.381Z,60.22
2023-03-19T07:31:11.512Z,59.94
2023-03-19T07:33:39.779Z,59.41
2023-03-19T07:36:10.542Z,59.06
2023-03-19T07:38:38.682Z,57.88
2023-03-19T07:41:06.856Z,57.14
2023-03-19T07:43:35.066Z,56.22
2023-03-19T07:46:04.608Z,55.25
2023-03-19T07:48:33.000Z,55.29
2023-03-19T07:51:01.199Z,56.02
2023-03-19T07:53:30.822Z,56.31
2023-03-19T07:55:59.021Z,56.41
2023-03-19T07:58:27.750Z,56.00
2023-03-19T08:00:56.168Z,56.10
2023-03-19T08:03:24.397Z,55.81
2023-03-19T08:05:53.877Z,56.41
2023-03-19T08:08:22.289Z,55.41
2023-03-19T08:10:54.485Z,56.06
2023-03-19T08:13:22.826Z,54.95
2023-03-19T08:15:51.316Z,55.77
2023-03-19T08:18:19.566Z,55.53
2023-03-19T08:20:48.324Z,55.80
2023-03-19T08:23:16.903Z,55.55
2023-03-19T08:25:45.204Z,53.79
2023-03-19T08:28:14.870Z,53.98
2023-03-19T08:30:43.248Z,53.24
2023-03-19T08:33:11.569Z,52.52
2023-03-19T08:35:39.959Z,52.31
2023-03-19T08:38:08.342Z,52.20
2023-03-19T08:40:37.053Z,51.81
2023-03-19T08:43:05.454Z,52.52
2023-03-19T08:45:35.191Z,51.93
2023-03-19T08:48:04.382Z,52.52
2023-03-19T08:50:32.910Z,52.35
2023-03-19T08:53:01.286Z,52.84
2023-03-19T08:55:29.596Z,51.72
2023-03-19T08:57:57.779Z,50.25
2023-03-19T09:00:26.232Z,50.69
2023-03-19T09:02:55.944Z,50.90
2023-03-19T09:05:24.402Z,51.06
2023-03-19T09:07:53.402Z,50.93
2023-03-19T09:10:21.765Z,50.89
2023-03-19T09:12:49.945Z,50.80
2023-03-19T09:15:18.470Z,50.78
2023-03-19T09:17:46.815Z,50.82
2023-03-19T09:20:16.636Z,51.11
2023-03-19T09:22:45.294Z,50.31
2023-03-19T09:25:13.826Z,49.92
2023-03-19T09:27:42.175Z,49.52
2023-03-19T09:30:11.900Z,50.04
2023-03-19T09:32:40.181Z,48.77
2023-03-19T09:35:09.274Z,48.59
2023-03-19T09:37:38.873Z,47.77
2023-03-19T09:40:08.615Z,48.49
2023-03-19T09:42:51.408Z,47.71
2023-03-19T09:45:21.179Z,47.55
2023-03-19T09:47:53.404Z,47.58
2023-03-19T09:50:24.638Z,46.16
2023-03-19T09:53:01.973Z,46.33
2023-03-19T09:55:41.474Z,48.06
2023-03-19T09:58:16.819Z,46.80
2023-03-19T10:00:48.133Z,46.57
2023-03-19T10:03:34.408Z,45.43
2023-03-19T10:06:19.214Z,45.21
2023-03-19T10:09:03.293Z,44.71
2023-03-19T10:11:44.291Z,44.48
2023-03-19T10:14:37.110Z,44.11
2023-03-19T10:17:07.407Z,43.30
2023-03-19T10:19:43.768Z,44.42
2023-03-19T10:22:18.088Z,43.91
2023-03-19T10:24:50.014Z,44.12
2023-03-19T10:27:20.425Z,44.00
2023-03-19T10:29:48.742Z,43.41
2023-03-19T10:32:20.471Z,42.25
2023-03-19T10:34:51.113Z,43.30
2023-03-19T10:37:21.712Z,41.72
2023-03-19T10:39:53.125Z,41.98
2023-03-19T10:42:48.524Z,41.97
2023-03-19T10:45:26.239Z,43.76
2023-03-19T10:47:56.214Z,44.33
2023-03-19T10:50:31.533Z,44.80
2023-03-19T10:53:06.964Z,43.69
2023-03-19T10:55:37.166Z,43.36
2023-03-19T10:58:07.422Z,43.23
2023-03-19T11:00:36.643Z,42.83
2023-03-19T11:03:05.984Z,42.97
2023-03-19T11:05:36.080Z,42.76
2023-03-19T11:08:07.020Z,43.25
2023-03-19T11:10:37.844Z,43.41
2023-03-19T11:13:08.575Z,43.01
2023-03-19T11:15:40.367Z,43.51
2023-03-19T11:18:17.460Z,44.39
2023-03-19T11:20:51.036Z,43.08
2023-03-19T11:23:21.382Z,44.00
2023-03-19T11:25:53.159Z,44.42
2023-03-19T11:28:26.779Z,42.61
2023-03-19T11:31:03.710Z,44.81
2023-03-19T11:33:49.037Z,44.32
2023-03-19T11:36:24.235Z,44.55
2023-03-19T11:39:08.177Z,44.38
2023-03-19T11:41:54.416Z,44.02
2023-03-19T11:44:27.875Z,44.36
2023-03-19T11:47:14.915Z,43.78
2023-03-19T11:50:03.059Z,42.23
2023-03-19T11:52:41.790Z,42.85
2023-03-19T11:55:22.434Z,42.31
2023-03-19T11:58:18.224Z,42.87
2023-03-19T12:00:50.828Z,40.92
2023-03-19T12:03:46.261Z,40.16
2023-03-19T12:06:26.487Z,40.41
2023-03-19T12:09:01.180Z,40.75
2023-03-19T12:11:38.643Z,40.44
2023-03-19T12:14:27.857Z,40.07
2023-03-19T12:17:08.763Z,38.66
2023-03-19T12:19:53.077Z,38.94
2023-03-19T12:22:33.765Z,38.76
2023-03-19T12:25:20.470Z,38.73
2023-03-19T12:27:56.639Z,38.52
2023-03-19T12:30:35.721Z,40.03
2023-03-19T12:33:30.397Z,39.63
2023-03-19T12:36:00.631Z,39.60
2023-03-19T12:38:37.625Z,38.94
2023-03-19T12:41:11.093Z,39.81
2023-03-19T12:43:47.851Z,41.02
2023-03-19T12:46:24.838Z,40.23
2023-03-19T12:48:56.311Z,38.41
2023-03-19T12:51:29.456Z,40.25
2023-03-19T12:54:01.508Z,39.57
2023-03-19T12:56:36.866Z,39.01
2023-03-19T12:59:15.578Z,40.05
2023-03-19T13:01:50.431Z,38.96
2023-03-19T13:04:22.889Z,40.54
2023-03-19T13:06:56.482Z,38.92
2023-03-19T13:09:31.446Z,39.03
2023-03-19T13:12:04.464Z,38.97
2023-03-19T13:14:39.810Z,40.30
2023-03-19T13:17:21.524Z,39.90
2023-03-19T13:19:52.844Z,39.49
2023-03-19T13:22:24.025Z,40.37
2023-03-19T13:24:53.814Z,39.01
2023-03-19T13:27:25.265Z,38.88
2023-03-19T13:30:04.197Z,40.22
2023-03-19T13:32:41.493Z,39.72
2023-03-19T13:35:33.238Z,39.22
2023-03-19T13:38:03.959Z,38.98
2023-03-19T13:40:47.773Z,40.25
2023-03-19T13:43:43.253Z,40.81
2023-03-19T13:46:45.342Z,39.72
2023-03-19T13:49:30.553Z,40.45
2023-03-19T13:52:24.023Z,41.28
2023-03-19T13:54:56.788Z,39.62
2023-03-19T13:57:36.136Z,40.89
2023-03-19T14:00:53.479Z,40.35
2023-03-19T14:03:23.532Z,40.21
2023-03-19T14:05:56.459Z,40.67
2023-03-19T14:08:28.328Z,39.81
2023-03-19T14:10:59.255Z,38.97
2023-03-19T14:13:35.357Z,39.48
2023-03-19T14:16:13.365Z,39.46
2023-03-19T14:18:44.244Z,39.45
2023-03-19T14:21:21.858Z,39.29
2023-03-19T14:23:57.817Z,38.75
2023-03-19T14:26:29.543Z,39.25
2023-03-19T14:29:02.170Z,39.74
2023-03-19T14:31:35.226Z,39.73
2023-03-19T14:34:21.106Z,39.87
2023-03-19T14:36:58.410Z,40.11
2023-03-19T14:39:29.352Z,41.07
2023-03-19T14:42:07.320Z,40.18
2023-03-19T14:45:19.590Z,41.25
2023-03-19T14:48:08.885Z,40.71
2023-03-19T14:51:06.585Z,40.95
2023-03-19T14:53:42.448Z,40.73
2023-03-19T14:56:16.486Z,41.70
2023-03-19T14:58:52.116Z,41.88
2023-03-19T15:01:21.655Z,43.16
2023-03-19T15:03:55.215Z,42.50
2023-03-19T15:06:23.877Z,42.78
2023-03-19T15:08:53.666Z,43.21
2023-03-19T15:11:44.552Z,43.64
2023-03-19T15:14:30.616Z,42.89
2023-03-19T15:17:07.805Z,44.34
2023-03-19T15:19:37.703Z,44.08
2023-03-19T15:22:06.863Z,43.47
2023-03-19T15:24:36.826Z,44.11
2023-03-19T15:27:19.049Z,43.29
2023-03-19T15:29:51.532Z,43.34
2023-03-19T15:32:51.750Z,43.82
2023-03-19T15:35:24.064Z,43.62
2023-03-19T15:37:55.475Z,43.82
2023-03-19T15:40:30.321Z,44.09
2023-03-19T15:43:01.378Z,44.53
2023-03-19T15:45:32.430Z,44.19
2023-03-19T15:48:05.220Z,44.08
2023-03-19T15:50:36.941Z,43.91
2023-03-19T15:53:11.085Z,44.29
2023-03-19T15:55:41.056Z,44.74
2023-03-19T15:58:13.281Z,44.87
2023-03-19T16:00:42.561Z,45.20
2023-03-19T16:03:19.147Z,45.08
2023-03-19T16:05:52.286Z,45.25
2023-03-19T16:08:25.954Z,45.41
2023-03-19T16:10:55.624Z,45.57
2023-03-19T16:13:32.299Z,45.48
2023-03-19T16:16:08.155Z,45.75
2023-03-19T16:18:45.742Z,46.24
2023-03-19T16:21:17.751Z,46.03
2023-03-19T16:23:51.574Z,46.52
2023-03-19T16:26:26.728Z,46.94
2023-03-19T16:29:06.278Z,46.94
2023-03-19T16:31:44.346Z,47.20
2023-03-19T16:34:38.622Z,47.43
2023-03-19T16:37:28.813Z,47.67
2023-03-19T16:39:58.468Z,47.79
2023-03-19T16:42:39.087Z,47.96
2023-03-19T16:45:26.476Z,48.01
2023-03-19T16:47:57.151Z,47.86
2023-03-19T16:50:30.523Z,47.80
2023-03-19T16:53:00.106Z,47.90
2023-03-19T16:55:32.277Z,48.25
2023-03-19T16:58:04.300Z,48.18
2023-03-19T17:00:34.043Z,47.60
2023-03-19T17:03:02.565Z,47.91
2023-03-19T17:05:31.547Z,48.22
2023-03-19T17:07:59.759Z,48.51
2023-03-19T17:10:30.342Z,48.84
2023-03-19T17:12:59.291Z,48.84
2023-03-19T17:15:33.934Z,49.14
2023-03-19T17:18:04.701Z,49.20
2023-03-19T17:20:35.320Z,49.23
2023-03-19T17:23:10.824Z,50.26
2023-03-19T17:25:39.304Z,51.65
2023-03-19T17:28:07.645Z,51.65
2023-03-19T17:30:39.132Z,52.82
2023-03-19T17:33:07.434Z,53.42
2023-03-19T17:35:35.825Z,51.51
2023-03-19T17:38:04.107Z,51.99
2023-03-19T17:40:32.669Z,51.77
2023-03-19T17:43:01.271Z,51.85
2023-03-19T17:45:30.524Z,51.74
2023-03-19T17:48:00.190Z,52.09
2023-03-19T17:50:37.998Z,52.01
2023-03-19T17:53:11.873Z,52.10
2023-03-19T17:55:40.872Z,54.16
2023-03-19T17:58:17.065Z,55.03
2023-03-19T18:00:45.738Z,55.55
2023-03-19T18:03:19.470Z,56.36
2023-03-19T18:05:50.450Z,56.36
2023-03-19T18:08:25.490Z,55.42
2023-03-19T18:10:54.780Z,54.83
2023-03-19T18:13:23.129Z,54.92
2023-03-19T18:15:51.309Z,55.28
2023-03-19T18:18:23.088Z,56.35
2023-03-19T18:20:51.970Z,56.39
2023-03-19T18:23:22.415Z,57.36
2023-03-19T18:25:51.845Z,58.44
2023-03-19T18:28:37.150Z,59.21
2023-03-19T18:31:06.614Z,56.74
2023-03-19T18:33:36.956Z,57.36
2023-03-19T18:36:05.727Z,57.39
2023-03-19T18:38:34.210Z,56.31
2023-03-19T18:41:03.190Z,56.29
2023-03-19T18:43:31.771Z,57.31
2023-03-19T18:46:00.861Z,58.08
2023-03-19T18:48:32.508Z,57.04
2023-03-19T18:51:02.323Z,56.89
2023-03-19T18:53:30.828Z,58.10
2023-03-19T18:56:02.332Z,58.79
2023-03-19T18:58:30.974Z,57.41
2023-03-19T19:01:01.643Z,56.47
2023-03-19T19:03:31.814Z,56.21
2023-03-19T19:06:01.550Z,57.08
2023-03-19T19:08:30.072Z,58.64
2023-03-19T19:11:03.523Z,59.18
2023-03-19T19:13:46.308Z,59.61
2023-03-19T19:16:25.262Z,59.90
2023-03-19T19:18:53.983Z,61.08
2023-03-19T19:21:23.666Z,59.88
2023-03-19T19:23:51.937Z,59.92
2023-03-19T19:26:23.420Z,60.53
2023-03-19T19:28:52.560Z,60.61
2023-03-19T19:31:25.815Z,61.11
2023-03-19T19:33:54.561Z,61.30
2023-03-19T19:36:25.805Z,60.24
2023-03-19T19:38:54.002Z,59.52
2023-03-19T19:41:24.683Z,59.71
2023-03-19T19:43:57.412Z,59.81
2023-03-19T19:46:25.943Z,60.01
2023-03-19T19:48:54.087Z,59.92
2023-03-19T19:51:24.856Z,60.78
2023-03-19T19:53:54.452Z,61.62
2023-03-19T19:56:24.712Z,61.14
2023-03-19T19:58:55.735Z,61.41
2023-03-19T20:01:25.414Z,61.50
2023-03-19T20:03:54.527Z,60.81
2023-03-19T20:06:24.279Z,60.99
2023-03-19T20:08:53.101Z,61.34
2023-03-19T20:11:23.033Z,60.83
2023-03-19T20:13:54.644Z,61.08
2023-03-19T20:16:25.644Z,61.17
2023-03-19T20:18:55.243Z,61.15
2023-03-19T20:21:24.869Z,61.47
2023-03-19T20:23:55.623Z,61.89
2023-03-19T20:26:25.343Z,61.68
2023-03-19T20:28:54.637Z,61.66
2023-03-19T20:31:27.305Z,61.48
2023-03-19T20:33:55.605Z,62.26
2023-03-19T20:36:25.218Z,62.34
2023-03-19T20:38:53.746Z,62.59
2023-03-19T20:41:24.161Z,63.15
2023-03-19T20:43:53.270Z,63.37
2023-03-19T20:46:32.449Z,62.89
2023-03-19T20:49:01.641Z,63.89
2023-03-19T20:51:33.291Z,64.63
2023-03-19T20:54:01.968Z,65.29
2023-03-19T20:56:30.928Z,65.80
2023-03-19T20:58:59.151Z,65.63
2023-03-19T21:01:27.301Z,65.86
2023-03-19T21:03:55.532Z,66.17
2023-03-19T21:06:25.580Z,66.23
2023-03-19T21:08:59.745Z,66.31
2023-03-19T21:11:38.427Z,66.26
2023-03-19T21:14:08.003Z,67.16
2023-03-19T21:16:36.713Z,66.60
2023-03-19T21:19:05.736Z,67.14
2023-03-19T21:21:36.746Z,67.05
2023-03-19T21:24:13.820Z,66.27
2023-03-19T21:26:43.893Z,66.88
2023-03-19T21:29:17.205Z,66.78
2023-03-19T21:31:46.360Z,66.17
2023-03-19T21:34:15.867Z,66.22
2023-03-19T21:36:44.129Z,66.76
2023-03-19T21:39:13.776Z,67.08
2023-03-19T21:41:42.918Z,67.04
2023-03-19T21:44:14.797Z,67.60
2023-03-19T21:46:46.620Z,68.09
2023-03-19T21:49:16.103Z,68.31
2023-03-19T21:51:44.296Z,68.34
2023-03-19T21:54:15.888Z,68.94
2023-03-19T21:56:46.526Z,68.92
2023-03-19T21:59:16.665Z,69.26
2023-03-19T22:01:45.044Z,69.49
2023-03-19T22:04:13.307Z,69.74
2023-03-19T22:06:43.153Z,69.92
2023-03-19T22:09:11.931Z,69.66
2023-03-19T22:11:42.687Z,69.59
2023-03-19T22:14:17.952Z,70.06
2023-03-19T22:16:46.717Z,69.71
2023-03-19T22:19:16.036Z,69.48
2023-03-19T22:21:44.324Z,69.81
2023-03-19T22:24:12.854Z,70.51
2023-03-19T22:26:44.449Z,70.72
2023-03-19T22:29:17.149Z,71.20
2023-03-19T22:31:46.076Z,70.88
2023-03-19T22:34:16.692Z,70.57
2023-03-19T22:36:45.059Z,70.88
2023-03-19T22:39:13.816Z,71.04
2023-03-19T22:41:45.904Z,72.07
2023-03-19T22:44:20.771Z,72.84
2023-03-19T22:46:49.015Z,73.36
2023-03-19T22:49:18.575Z,73.04
2023-03-19T22:51:47.490Z,72.71
2023-03-19T22:54:15.769Z,72.73
2023-03-19T22:56:45.312Z,72.72
2023-03-19T22:59:13.906Z,72.89
2023-03-19T23:01:44.651Z,73.58
2023-03-19T23:04:20.071Z,73.63
2023-03-19T23:06:48.703Z,73.89
2023-03-19T23:09:19.077Z,74.31
2023-03-19T23:11:49.579Z,74.57
2023-03-19T23:14:29.189Z,73.64
2023-03-19T23:17:01.069Z,73.97
2023-03-19T23:19:31.412Z,74.29
2023-03-19T23:22:01.368Z,74.84
2023-03-19T23:24:30.671Z,74.66
2023-03-19T23:27:02.538Z,74.31
2023-03-19T23:29:32.612Z,74.13
2023-03-19T23:32:01.224Z,74.09
2023-03-19T23:34:29.742Z,74.11
2023-03-19T23:36:58.140Z,73.86
2023-03-19T23:39:26.895Z,74.20
2023-03-19T23:41:59.340Z,74.86
2023-03-19T23:44:29.729Z,74.44
2023-03-19T23:47:01.103Z,74.32
2023-03-19T23:49:30.897Z,74.78
2023-03-19T23:52:00.274Z,74.90
2023-03-19T23:54:31.903Z,74.79
2023-03-19T23:57:03.381Z,74.94
2023-03-19T23:59:35.784Z,75.52
